Time;durP1;ratioP1;P1;durP2;ratioP2;P2;SDS_P1;SDS_P2;PMS_P1;PMS_P2;Temp;Humidity;BMP_temperature;BMP_pressure;BME280_temperature;BME280_humidity;BME280_pressure;Samples;Min_cycle;Max_cycle;Signal;HPM_P1;HPM_P2
2022/07/09 00:01:33;;;;;;;0.70;0.70;;;;;;;;;;1863115;77;26470;-86
2022/07/09 00:04:00;;;;;;;0.70;0.70;;;;;;;;;;1861045;77;26849;-86
2022/07/09 00:06:28;;;;;;;0.70;0.70;;;;;;;;;;1866435;76;26922;-85
2022/07/09 00:08:56;;;;;;;0.70;0.70;;;;;;;;;;1847115;76;26262;-86
2022/07/09 00:11:23;;;;;;;0.60;0.60;;;;;;;;;;1866144;75;26386;-86
2022/07/09 00:13:50;;;;;;;0.75;0.70;;;;;;;;;;1864802;76;26796;-86
2022/07/09 00:16:17;;;;;;;0.70;0.70;;;;;;;;;;1867444;75;26237;-86
2022/07/09 00:18:45;;;;;;;0.60;0.55;;;;;;;;;;1869179;77;26535;-86
2022/07/09 00:21:12;;;;;;;0.60;0.60;;;;;;;;;;1862597;75;26312;-86
2022/07/09 00:23:39;;;;;;;1.10;0.60;;;;;;;;;;1857391;75;26197;-86
2022/07/09 00:26:06;;;;;;;0.70;0.70;;;;;;;;;;1871847;76;26308;-86
2022/07/09 00:28:34;;;;;;;0.60;0.60;;;;;;;;;;1867071;76;26308;-86
2022/07/09 00:31:01;;;;;;;0.60;0.60;;;;;;;;;;1867887;77;26288;-86
2022/07/09 00:33:28;;;;;;;3.55;0.65;;;;;;;;;;1857991;77;26285;-86
2022/07/09 00:35:56;;;;;;;0.60;0.60;;;;;;;;;;1866601;75;26276;-86
2022/07/09 00:38:23;;;;;;;0.60;0.60;;;;;;;;;;1865314;76;26875;-85
2022/07/09 00:40:50;;;;;;;0.80;0.80;;;;;;;;;;1867758;76;26304;-86
2022/07/09 00:43:19;;;;;;;0.70;0.70;;;;;;;;;;1866513;75;26869;-86
2022/07/09 00:45:47;;;;;;;0.50;0.50;;;;;;;;;;1863724;77;26298;-86
2022/07/09 00:48:14;;;;;;;0.53;0.53;;;;;;;;;;1856108;77;26308;-86
2022/07/09 00:50:42;;;;;;;4.67;0.50;;;;;;;;;;1866981;76;27120;-87
2022/07/09 00:53:10;;;;;;;0.70;0.70;;;;;;;;;;1865333;75;26299;-84
2022/07/09 00:55:38;;;;;;;0.50;0.50;;;;;;;;;;1859720;77;26380;-85
2022/07/09 00:58:06;;;;;;;2.05;0.60;;;;;;;;;;1869891;76;26277;-85
2022/07/09 01:00:34;;;;;;;0.60;0.60;;;;;;;;;;1860786;74;26295;-85
2022/07/09 01:03:02;;;;;;;0.60;0.60;;;;;;;;;;1860796;77;26319;-85
2022/07/09 01:05:35;;;;;;;0.60;0.60;;;;;;;;;;1844374;76;26339;-85
2022/07/09 01:07:58;;;;;;;0.60;0.60;;;;;;;;;;1856273;77;26280;-85
2022/07/09 01:10:26;;;;;;;0.60;0.60;;;;;;;;;;1856857;75;26344;-86
2022/07/09 01:12:55;;;;;;;0.50;0.50;;;;;;;;;;1852715;77;26255;-85
2022/07/09 01:15:22;;;;;;;0.53;0.53;;;;;;;;;;1867370;75;26409;-85
2022/07/09 01:17:51;;;;;;;0.50;0.50;;;;;;;;;;1847128;76;26335;-85
2022/07/09 01:20:20;;;;;;;0.70;0.70;;;;;;;;;;1875515;75;26605;-85
2022/07/09 01:22:47;;;;;;;0.50;0.50;;;;;;;;;;1848378;76;26263;-85
2022/07/09 01:25:17;;;;;;;0.50;0.50;;;;;;;;;;1866506;75;26267;-85
2022/07/09 01:27:45;;;;;;;0.60;0.60;;;;;;;;;;1864670;76;26292;-85
2022/07/09 01:30:14;;;;;;;0.60;0.60;;;;;;;;;;1866463;77;26234;-85
2022/07/09 01:32:41;;;;;;;0.68;0.57;;;;;;;;;;1860739;76;26762;-85
2022/07/09 01:35:08;;;;;;;0.62;0.62;;;;;;;;;;1865884;76;26311;-85
2022/07/09 01:37:36;;;;;;;0.70;0.70;;;;;;;;;;1856339;77;26614;-86
2022/07/09 01:40:03;;;;;;;0.70;0.70;;;;;;;;;;1867763;77;26547;-86
2022/07/09 01:42:30;;;;;;;0.60;0.60;;;;;;;;;;1866619;76;26587;-86
2022/07/09 01:44:58;;;;;;;0.60;0.60;;;;;;;;;;1864716;75;26241;-86
2022/07/09 01:47:25;;;;;;;0.68;0.68;;;;;;;;;;1859084;76;26315;-86
2022/07/09 01:49:52;;;;;;;0.68;0.68;;;;;;;;;;1870364;77;26220;-86
2022/07/09 01:52:20;;;;;;;0.60;0.60;;;;;;;;;;1868227;76;26323;-86
2022/07/09 01:54:47;;;;;;;0.40;0.40;;;;;;;;;;1860962;76;26281;-85
2022/07/09 01:57:14;;;;;;;0.55;0.40;;;;;;;;;;1858009;77;26277;-86
2022/07/09 01:59:41;;;;;;;0.60;0.60;;;;;;;;;;1861694;77;26333;-86
2022/07/09 02:02:09;;;;;;;0.60;0.60;;;;;;;;;;1862521;77;26266;-86
2022/07/09 02:04:36;;;;;;;0.80;0.40;;;;;;;;;;1847055;77;26584;-86
2022/07/09 02:07:03;;;;;;;1.10;0.70;;;;;;;;;;1855029;77;26293;-85
2022/07/09 02:09:31;;;;;;;0.47;0.47;;;;;;;;;;1840018;77;26290;-86
2022/07/09 02:11:58;;;;;;;0.60;0.60;;;;;;;;;;1854240;77;26351;-86
2022/07/09 02:14:25;;;;;;;0.50;0.50;;;;;;;;;;1852429;77;26725;-86
2022/07/09 02:16:52;;;;;;;0.70;0.70;;;;;;;;;;1850761;77;26782;-86
2022/07/09 02:19:20;;;;;;;0.60;0.60;;;;;;;;;;1856204;77;26311;-86
2022/07/09 02:21:47;;;;;;;0.50;0.50;;;;;;;;;;1850376;77;26298;-86
2022/07/09 02:24:14;;;;;;;0.60;0.60;;;;;;;;;;1849855;77;26276;-86
2022/07/09 02:26:42;;;;;;;0.62;0.62;;;;;;;;;;1856701;77;26276;-86
2022/07/09 02:29:09;;;;;;;0.60;0.60;;;;;;;;;;1851958;77;26196;-86
2022/07/09 02:31:36;;;;;;;0.62;0.62;;;;;;;;;;1859754;77;26260;-86
2022/07/09 02:34:04;;;;;;;0.60;0.60;;;;;;;;;;1853959;77;26331;-86
2022/07/09 02:36:31;;;;;;;0.50;0.50;;;;;;;;;;1844348;77;26251;-86
2022/07/09 02:38:58;;;;;;;0.60;0.60;;;;;;;;;;1856610;76;26300;-86
2022/07/09 02:41:25;;;;;;;0.50;0.50;;;;;;;;;;1844472;77;26368;-86
2022/07/09 02:43:53;;;;;;;0.60;0.60;;;;;;;;;;1850381;77;26633;-86
2022/07/09 02:46:20;;;;;;;0.65;0.60;;;;;;;;;;1859722;77;26252;-86
2022/07/09 02:48:47;;;;;;;0.60;0.60;;;;;;;;;;1855099;77;26360;-86
2022/07/09 02:51:14;;;;;;;0.60;0.60;;;;;;;;;;1860099;77;26288;-86
2022/07/09 02:53:42;;;;;;;0.50;0.50;;;;;;;;;;1852365;77;26291;-86
2022/07/09 02:56:09;;;;;;;0.50;0.50;;;;;;;;;;1849685;76;26815;-86
2022/07/09 02:58:36;;;;;;;0.70;0.70;;;;;;;;;;1853287;77;26695;-86
2022/07/09 03:01:08;;;;;;;0.50;0.50;;;;;;;;;;1854823;77;26404;-85
2022/07/09 03:03:35;;;;;;;1.30;0.50;;;;;;;;;;1850602;77;26332;-86
2022/07/09 03:06:02;;;;;;;0.60;0.60;;;;;;;;;;1840961;77;26396;-85
2022/07/09 03:08:30;;;;;;;0.50;0.50;;;;;;;;;;1857557;77;26253;-86
2022/07/09 03:10:57;;;;;;;0.62;0.62;;;;;;;;;;1853358;77;26291;-86
2022/07/09 03:13:24;;;;;;;0.60;0.60;;;;;;;;;;1840107;77;26306;-86
2022/07/09 03:15:51;;;;;;;0.57;0.57;;;;;;;;;;1860321;77;26263;-86
2022/07/09 03:18:19;;;;;;;0.70;0.70;;;;;;;;;;1859116;77;26280;-85
2022/07/09 03:20:47;;;;;;;0.50;0.50;;;;;;;;;;1849947;77;26281;-86
2022/07/09 03:23:15;;;;;;;0.50;0.50;;;;;;;;;;1861843;76;26390;-86
2022/07/09 03:25:42;;;;;;;0.78;0.78;;;;;;;;;;1858199;76;26372;-86
2022/07/09 03:28:10;;;;;;;0.60;0.60;;;;;;;;;;1852265;77;26205;-86
2022/07/09 03:30:37;;;;;;;7.53;0.70;;;;;;;;;;1839258;77;26621;-85
2022/07/09 03:33:05;;;;;;;0.60;0.60;;;;;;;;;;1857766;77;26283;-86
2022/07/09 03:35:32;;;;;;;0.70;0.70;;;;;;;;;;1858732;77;26296;-86
2022/07/09 03:37:59;;;;;;;0.50;0.50;;;;;;;;;;1857094;77;26301;-86
2022/07/09 03:40:27;;;;;;;0.47;0.47;;;;;;;;;;1849531;77;26724;-86
2022/07/09 03:42:54;;;;;;;0.50;0.50;;;;;;;;;;1859978;77;26399;-86
2022/07/09 03:45:21;;;;;;;0.60;0.60;;;;;;;;;;1859779;77;26243;-86
2022/07/09 03:47:50;;;;;;;0.62;0.62;;;;;;;;;;1860106;77;26397;-86
2022/07/09 03:50:17;;;;;;;1.90;0.57;;;;;;;;;;1852788;77;26279;-86
2022/07/09 03:52:44;;;;;;;0.50;0.50;;;;;;;;;;1858652;77;26347;-86
2022/07/09 03:55:12;;;;;;;0.50;0.50;;;;;;;;;;1859876;76;26373;-85
2022/07/09 03:57:39;;;;;;;0.60;0.60;;;;;;;;;;1859876;77;26333;-86
2022/07/09 04:00:07;;;;;;;0.50;0.50;;;;;;;;;;1843624;77;26884;-86
2022/07/09 04:02:34;;;;;;;0.70;0.70;;;;;;;;;;1844721;77;26247;-86
2022/07/09 04:05:01;;;;;;;0.50;0.50;;;;;;;;;;1855816;77;26260;-86
2022/07/09 04:07:29;;;;;;;0.42;0.42;;;;;;;;;;1859342;77;26334;-86
2022/07/09 04:09:57;;;;;;;0.50;0.50;;;;;;;;;;1838693;77;26221;-85
2022/07/09 04:12:24;;;;;;;0.53;0.53;;;;;;;;;;1852755;77;26280;-88
2022/07/09 04:14:51;;;;;;;0.50;0.50;;;;;;;;;;1854847;77;26271;-86
2022/07/09 04:17:19;;;;;;;0.30;0.30;;;;;;;;;;1858818;77;26331;-87
2022/07/09 04:19:46;;;;;;;0.40;0.40;;;;;;;;;;1853204;77;26235;-85
2022/07/09 04:22:13;;;;;;;0.57;0.57;;;;;;;;;;1859645;77;26830;-87
2022/07/09 04:24:40;;;;;;;1.10;0.55;;;;;;;;;;1855639;77;26250;-85
2022/07/09 04:27:08;;;;;;;0.50;0.50;;;;;;;;;;1862823;76;26713;-86
2022/07/09 04:29:35;;;;;;;0.60;0.60;;;;;;;;;;1862796;76;26401;-86
2022/07/09 04:32:04;;;;;;;0.47;0.42;;;;;;;;;;1863406;76;26355;-86
2022/07/09 04:34:32;;;;;;;0.40;0.40;;;;;;;;;;1856113;76;26176;-85
2022/07/09 04:36:59;;;;;;;0.50;0.50;;;;;;;;;;1860386;76;26270;-85
2022/07/09 04:39:27;;;;;;;0.50;0.50;;;;;;;;;;1856366;77;26233;-86
2022/07/09 04:41:54;;;;;;;0.60;0.60;;;;;;;;;;1857190;77;26339;-86
2022/07/09 04:44:21;;;;;;;0.50;0.50;;;;;;;;;;1857111;77;26419;-86
2022/07/09 04:46:49;;;;;;;0.75;0.72;;;;;;;;;;1856175;77;26271;-86
2022/07/09 04:49:16;;;;;;;0.60;0.60;;;;;;;;;;1860158;77;26349;-86
2022/07/09 04:51:43;;;;;;;0.60;0.60;;;;;;;;;;1854109;77;26271;-86
2022/07/09 04:54:10;;;;;;;0.68;0.60;;;;;;;;;;1850111;77;26330;-86
2022/07/09 04:56:38;;;;;;;0.57;0.57;;;;;;;;;;1857995;76;26297;-86
2022/07/09 04:59:05;;;;;;;0.50;0.50;;;;;;;;;;1856153;77;26903;-86
2022/07/09 05:01:33;;;;;;;0.50;0.50;;;;;;;;;;1853017;77;26723;-85
2022/07/09 05:04:01;;;;;;;0.50;0.50;;;;;;;;;;1857204;77;26350;-85
2022/07/09 05:06:28;;;;;;;0.50;0.50;;;;;;;;;;1854786;77;26275;-86
2022/07/09 05:08:55;;;;;;;1.30;0.55;;;;;;;;;;1851116;77;26413;-86
2022/07/09 05:11:23;;;;;;;0.60;0.60;;;;;;;;;;1843103;77;26425;-86
2022/07/09 05:13:50;;;;;;;0.50;0.50;;;;;;;;;;1837662;77;26243;-86
2022/07/09 05:16:17;;;;;;;0.50;0.50;;;;;;;;;;1855335;77;26840;-86
2022/07/09 05:18:45;;;;;;;0.42;0.42;;;;;;;;;;1855310;77;26384;-87
2022/07/09 05:21:12;;;;;;;0.40;0.40;;;;;;;;;;1858146;77;26204;-86
2022/07/09 05:23:39;;;;;;;0.42;0.42;;;;;;;;;;1846267;77;26267;-86
2022/07/09 05:26:06;;;;;;;0.50;0.50;;;;;;;;;;1856225;77;26393;-86
2022/07/09 05:28:34;;;;;;;0.50;0.50;;;;;;;;;;1848336;77;26720;-86
2022/07/09 05:31:01;;;;;;;0.98;0.50;;;;;;;;;;1851070;77;26299;-86
2022/07/09 05:33:28;;;;;;;0.50;0.50;;;;;;;;;;1853028;77;26294;-86
2022/07/09 05:35:56;;;;;;;0.40;0.40;;;;;;;;;;1859929;77;26216;-86
2022/07/09 05:38:24;;;;;;;0.50;0.50;;;;;;;;;;1860272;77;26307;-86
2022/07/09 05:40:51;;;;;;;0.50;0.50;;;;;;;;;;1859136;77;26440;-87
2022/07/09 05:43:19;;;;;;;0.40;0.40;;;;;;;;;;1846524;77;26368;-86
2022/07/09 05:45:46;;;;;;;0.40;0.40;;;;;;;;;;1841673;77;26226;-86
2022/07/09 05:48:14;;;;;;;0.40;0.40;;;;;;;;;;1843736;77;26250;-87
2022/07/09 05:50:41;;;;;;;0.30;0.30;;;;;;;;;;1848752;77;26270;-87
2022/07/09 05:53:08;;;;;;;0.35;0.35;;;;;;;;;;1843045;77;26268;-87
2022/07/09 05:55:35;;;;;;;0.50;0.50;;;;;;;;;;1841197;77;26328;-87
2022/07/09 05:58:03;;;;;;;0.90;0.50;;;;;;;;;;1849062;77;26718;-87
2022/07/09 06:00:30;;;;;;;0.40;0.40;;;;;;;;;;1848978;77;26364;-87
2022/07/09 06:02:57;;;;;;;0.68;0.68;;;;;;;;;;1847106;77;26220;-87
2022/07/09 06:05:24;;;;;;;0.60;0.60;;;;;;;;;;1846650;77;26262;-87
2022/07/09 06:07:52;;;;;;;0.40;0.40;;;;;;;;;;1854125;77;26379;-85
2022/07/09 06:10:19;;;;;;;0.35;0.35;;;;;;;;;;1850247;77;26289;-87
2022/07/09 06:12:46;;;;;;;0.60;0.60;;;;;;;;;;1854251;76;26393;-86
2022/07/09 06:15:14;;;;;;;1.55;0.60;;;;;;;;;;1861016;76;26396;-87
2022/07/09 06:17:41;;;;;;;0.40;0.40;;;;;;;;;;1854590;76;26332;-86
2022/07/09 06:20:09;;;;;;;0.57;0.57;;;;;;;;;;1857185;77;26221;-87
2022/07/09 06:22:36;;;;;;;0.65;0.50;;;;;;;;;;1852299;76;26335;-86
2022/07/09 06:25:03;;;;;;;1.72;0.60;;;;;;;;;;1848665;76;26306;-86
2022/07/09 06:27:31;;;;;;;4.03;0.70;;;;;;;;;;1848404;77;26165;-86
2022/07/09 06:29:59;;;;;;;1.12;0.40;;;;;;;;;;1853262;77;26323;-85
2022/07/09 06:32:26;;;;;;;0.50;0.50;;;;;;;;;;1853636;75;26275;-86
2022/07/09 06:34:54;;;;;;;0.60;0.60;;;;;;;;;;1855233;77;26354;-86
2022/07/09 06:37:21;;;;;;;1.85;0.50;;;;;;;;;;1843476;76;26274;-86
2022/07/09 06:39:50;;;;;;;0.60;0.60;;;;;;;;;;1856559;76;26240;-87
2022/07/09 06:42:18;;;;;;;0.55;0.50;;;;;;;;;;1855121;76;26220;-87
2022/07/09 06:44:45;;;;;;;0.62;0.62;;;;;;;;;;1858038;76;26351;-88
2022/07/09 06:47:13;;;;;;;0.55;0.50;;;;;;;;;;1856889;76;26239;-87
2022/07/09 06:49:40;;;;;;;0.47;0.47;;;;;;;;;;1849672;76;26174;-87
2022/07/09 06:52:08;;;;;;;0.40;0.40;;;;;;;;;;1854566;75;26268;-87
2022/07/09 06:54:36;;;;;;;1.72;0.60;;;;;;;;;;1850216;76;26351;-87
2022/07/09 06:57:03;;;;;;;0.60;0.60;;;;;;;;;;1858709;76;26347;-87
2022/07/09 06:59:31;;;;;;;1.25;0.50;;;;;;;;;;1860561;76;26230;-87
2022/07/09 07:01:58;;;;;;;0.40;0.40;;;;;;;;;;1857755;76;26245;-87
2022/07/09 07:04:26;;;;;;;0.57;0.50;;;;;;;;;;1855436;76;26345;-87
2022/07/09 07:06:53;;;;;;;0.65;0.50;;;;;;;;;;1870077;75;26270;-87
2022/07/09 07:09:23;;;;;;;2.52;0.50;;;;;;;;;;1868731;76;26297;-86
2022/07/09 07:11:51;;;;;;;4.47;0.90;;;;;;;;;;1870652;77;26325;-85
2022/07/09 07:14:18;;;;;;;4.05;0.65;;;;;;;;;;1870664;77;26269;-85
2022/07/09 07:16:45;;;;;;;2.70;0.78;;;;;;;;;;1861306;77;26291;-85
2022/07/09 07:19:13;;;;;;;0.55;0.55;;;;;;;;;;1857850;77;26292;-85
2022/07/09 07:21:40;;;;;;;3.05;0.80;;;;;;;;;;1868482;77;26294;-84
2022/07/09 07:24:08;;;;;;;0.50;0.50;;;;;;;;;;1865262;77;26281;-84
2022/07/09 07:26:36;;;;;;;1.00;0.62;;;;;;;;;;1860120;77;26326;-84
2022/07/09 07:29:04;;;;;;;0.65;0.60;;;;;;;;;;1861597;77;26350;-84
2022/07/09 07:31:31;;;;;;;0.93;0.53;;;;;;;;;;1867142;77;26260;-84
2022/07/09 07:33:59;;;;;;;1.62;0.50;;;;;;;;;;1857038;75;26209;-85
2022/07/09 07:36:27;;;;;;;4.72;0.80;;;;;;;;;;1859913;76;26379;-85
2022/07/09 07:38:54;;;;;;;0.62;0.55;;;;;;;;;;1849467;76;26669;-85
2022/07/09 07:41:23;;;;;;;0.50;0.50;;;;;;;;;;1861636;76;26919;-87
2022/07/09 07:43:50;;;;;;;1.40;0.50;;;;;;;;;;1853560;75;26354;-86
2022/07/09 07:46:17;;;;;;;0.60;0.60;;;;;;;;;;1865204;76;27238;-85
2022/07/09 07:48:45;;;;;;;0.62;0.60;;;;;;;;;;1866564;76;26313;-84
2022/07/09 07:51:12;;;;;;;2.37;0.50;;;;;;;;;;1855838;77;26432;-84
2022/07/09 07:53:39;;;;;;;1.30;0.70;;;;;;;;;;1866137;76;26390;-85
2022/07/09 07:56:07;;;;;;;3.47;0.50;;;;;;;;;;1869696;76;26308;-84
2022/07/09 07:58:35;;;;;;;1.12;0.60;;;;;;;;;;1865729;77;26229;-84
2022/07/09 08:01:03;;;;;;;2.60;0.70;;;;;;;;;;1856097;77;26239;-84
2022/07/09 08:03:30;;;;;;;1.57;0.70;;;;;;;;;;1845425;77;26246;-83
2022/07/09 08:05:57;;;;;;;2.25;0.70;;;;;;;;;;1809228;77;26356;-83
2022/07/09 08:08:25;;;;;;;1.05;0.90;;;;;;;;;;1858716;77;26726;-84
2022/07/09 08:10:52;;;;;;;4.55;0.88;;;;;;;;;;1841296;77;26266;-83
2022/07/09 08:13:19;;;;;;;2.37;1.00;;;;;;;;;;1844574;77;26271;-83
2022/07/09 08:15:47;;;;;;;1.10;0.70;;;;;;;;;;1841537;77;26310;-83
2022/07/09 08:18:14;;;;;;;2.55;0.80;;;;;;;;;;1841158;77;26259;-83
2022/07/09 08:20:42;;;;;;;2.72;0.90;;;;;;;;;;1854981;77;26324;-83
2022/07/09 08:23:10;;;;;;;3.85;0.80;;;;;;;;;;1857157;77;26247;-83
2022/07/09 08:25:37;;;;;;;0.70;0.70;;;;;;;;;;1841313;77;26788;-84
2022/07/09 08:28:05;;;;;;;1.12;0.72;;;;;;;;;;1850142;77;26260;-84
2022/07/09 08:30:32;;;;;;;1.95;0.90;;;;;;;;;;1853098;76;26286;-84
2022/07/09 08:32:59;;;;;;;5.00;0.90;;;;;;;;;;1851343;77;26306;-84
2022/07/09 08:35:27;;;;;;;1.07;0.85;;;;;;;;;;1835828;77;26375;-86
2022/07/09 08:37:54;;;;;;;2.05;0.70;;;;;;;;;;1836018;77;26252;-85
2022/07/09 08:40:22;;;;;;;1.67;0.95;;;;;;;;;;1839409;77;26278;-85
2022/07/09 08:42:54;;;;;;;2.75;0.93;;;;;;;;;;1858645;77;26244;-85
2022/07/09 08:45:22;;;;;;;0.60;0.57;;;;;;;;;;1841409;77;26809;-84
2022/07/09 08:47:50;;;;;;;1.37;0.80;;;;;;;;;;1845294;77;26319;-84
2022/07/09 08:50:18;;;;;;;0.62;0.60;;;;;;;;;;1853976;77;26676;-84
2022/07/09 08:52:46;;;;;;;3.22;0.60;;;;;;;;;;1848719;77;26790;-85
2022/07/09 08:55:13;;;;;;;3.52;0.60;;;;;;;;;;1850766;77;26258;-85
2022/07/09 08:57:40;;;;;;;0.78;0.70;;;;;;;;;;1847270;76;26259;-86
2022/07/09 09:00:08;;;;;;;0.60;0.60;;;;;;;;;;1860723;76;26247;-83
2022/07/09 09:02:36;;;;;;;0.53;0.53;;;;;;;;;;1866090;75;26293;-84
2022/07/09 09:05:08;;;;;;;0.60;0.60;;;;;;;;;;1866757;75;26736;-84
2022/07/09 09:07:35;;;;;;;1.05;0.60;;;;;;;;;;1868360;75;26773;-85
2022/07/09 09:10:02;;;;;;;0.60;0.60;;;;;;;;;;1863090;75;26255;-84
2022/07/09 09:12:30;;;;;;;0.50;0.50;;;;;;;;;;1873978;76;26976;-84
2022/07/09 09:14:57;;;;;;;0.60;0.60;;;;;;;;;;1874372;76;26266;-86
2022/07/09 09:17:24;;;;;;;0.70;0.70;;;;;;;;;;1871483;75;26345;-88
2022/07/09 09:19:51;;;;;;;0.50;0.50;;;;;;;;;;1864244;76;26273;-84
2022/07/09 09:22:19;;;;;;;0.90;0.70;;;;;;;;;;1869897;75;26329;-84
2022/07/09 09:24:50;;;;;;;0.60;0.60;;;;;;;;;;1870835;75;26391;-83
2022/07/09 09:27:17;;;;;;;0.55;0.50;;;;;;;;;;1875618;75;26320;-85
2022/07/09 09:29:51;;;;;;;0.60;0.60;;;;;;;;;;1873219;76;26287;-85
2022/07/09 09:32:21;;;;;;;0.40;0.40;;;;;;;;;;1869010;75;26715;-85
2022/07/09 09:34:51;;;;;;;0.72;0.60;;;;;;;;;;1879154;75;26295;-84
2022/07/09 09:37:31;;;;;;;0.60;0.60;;;;;;;;;;1863910;75;26658;-85
2022/07/09 09:39:59;;;;;;;0.88;0.60;;;;;;;;;;1865352;76;26306;-84
2022/07/09 09:42:28;;;;;;;0.50;0.50;;;;;;;;;;1876217;75;26254;-84
2022/07/09 09:44:57;;;;;;;0.50;0.50;;;;;;;;;;1873711;76;26242;-84
2022/07/09 09:47:25;;;;;;;0.37;0.37;;;;;;;;;;1870716;75;26701;-84
2022/07/09 09:49:53;;;;;;;0.30;0.30;;;;;;;;;;1871011;75;26273;-84
2022/07/09 09:52:21;;;;;;;0.50;0.50;;;;;;;;;;1877541;75;26365;-84
2022/07/09 09:54:49;;;;;;;0.50;0.50;;;;;;;;;;1876218;76;26272;-85
2022/07/09 09:57:17;;;;;;;0.62;0.50;;;;;;;;;;1884594;75;26727;-85
2022/07/09 09:59:47;;;;;;;0.40;0.40;;;;;;;;;;1849851;76;26385;-85
2022/07/09 10:02:15;;;;;;;0.50;0.50;;;;;;;;;;1838800;77;26336;-85
2022/07/09 10:04:43;;;;;;;0.40;0.40;;;;;;;;;;1856447;77;26260;-85
2022/07/09 10:07:14;;;;;;;0.40;0.40;;;;;;;;;;1845591;77;26266;-85
2022/07/09 10:09:41;;;;;;;0.42;0.42;;;;;;;;;;1842233;77;26193;-85
2022/07/09 10:12:09;;;;;;;0.50;0.50;;;;;;;;;;1858217;77;26268;-85
2022/07/09 10:14:38;;;;;;;0.53;0.53;;;;;;;;;;1857098;77;26386;-85
2022/07/09 10:17:13;;;;;;;0.40;0.40;;;;;;;;;;1853163;77;26249;-84
2022/07/09 10:19:42;;;;;;;0.40;0.40;;;;;;;;;;1848088;77;26263;-84
2022/07/09 10:22:10;;;;;;;0.50;0.50;;;;;;;;;;1856019;77;26252;-85
2022/07/09 10:24:38;;;;;;;0.50;0.50;;;;;;;;;;1853577;77;26648;-84
2022/07/09 10:27:06;;;;;;;0.50;0.50;;;;;;;;;;1857516;77;26241;-84
2022/07/09 10:29:34;;;;;;;0.50;0.50;;;;;;;;;;1844216;77;26294;-84
2022/07/09 10:32:02;;;;;;;0.50;0.50;;;;;;;;;;1857215;77;26804;-84
2022/07/09 10:34:46;;;;;;;0.40;0.40;;;;;;;;;;1855740;77;26290;-83
2022/07/09 10:37:13;;;;;;;0.30;0.30;;;;;;;;;;1854367;77;26333;-85
2022/07/09 10:39:41;;;;;;;0.50;0.50;;;;;;;;;;1848068;77;26280;-84
2022/07/09 10:42:21;;;;;;;0.40;0.40;;;;;;;;;;1856336;77;26240;-85
2022/07/09 10:44:53;;;;;;;0.30;0.30;;;;;;;;;;1857921;77;26339;-85
2022/07/09 10:47:20;;;;;;;0.30;0.30;;;;;;;;;;1851388;77;27073;-85
2022/07/09 10:49:48;;;;;;;0.95;0.30;;;;;;;;;;1856265;77;26251;-85
2022/07/09 10:52:15;;;;;;;0.40;0.40;;;;;;;;;;1844726;77;26758;-85
2022/07/09 10:54:46;;;;;;;0.40;0.40;;;;;;;;;;1857098;77;26712;-85
2022/07/09 10:57:14;;;;;;;0.40;0.40;;;;;;;;;;1842654;77;26251;-85
2022/07/09 10:59:47;;;;;;;0.55;0.40;;;;;;;;;;1853997;76;26803;-85
2022/07/09 11:02:24;;;;;;;0.37;0.37;;;;;;;;;;1854221;77;26791;-85
2022/07/09 11:04:52;;;;;;;0.40;0.40;;;;;;;;;;1852830;76;26333;-85
2022/07/09 11:07:27;;;;;;;0.50;0.50;;;;;;;;;;1867087;76;26272;-85
2022/07/09 11:09:54;;;;;;;0.40;0.40;;;;;;;;;;1877247;76;26389;-85
2022/07/09 11:12:22;;;;;;;0.40;0.40;;;;;;;;;;1867007;76;26322;-85
2022/07/09 11:14:50;;;;;;;0.42;0.42;;;;;;;;;;1858154;76;26286;-85
2022/07/09 11:17:19;;;;;;;0.42;0.42;;;;;;;;;;1854917;76;26353;-85
2022/07/09 11:19:47;;;;;;;0.40;0.40;;;;;;;;;;1858447;76;26249;-84
2022/07/09 11:22:16;;;;;;;0.47;0.40;;;;;;;;;;1858639;76;26835;-85
2022/07/09 11:24:43;;;;;;;0.50;0.50;;;;;;;;;;1862137;76;26946;-86
2022/07/09 11:27:10;;;;;;;0.50;0.50;;;;;;;;;;1865534;76;26239;-85
2022/07/09 11:29:37;;;;;;;0.40;0.40;;;;;;;;;;1851192;76;26196;-86
2022/07/09 11:32:05;;;;;;;0.53;0.53;;;;;;;;;;1866420;76;26301;-86
2022/07/09 11:34:32;;;;;;;0.50;0.50;;;;;;;;;;1866049;76;26274;-86
2022/07/09 11:37:00;;;;;;;0.40;0.40;;;;;;;;;;1864205;76;26218;-86
2022/07/09 11:39:33;;;;;;;0.30;0.30;;;;;;;;;;1865217;75;26328;-86
2022/07/09 11:42:01;;;;;;;0.30;0.30;;;;;;;;;;1851968;76;26379;-85
2022/07/09 11:44:29;;;;;;;0.30;0.30;;;;;;;;;;1859381;75;26315;-85
2022/07/09 11:47:01;;;;;;;0.40;0.40;;;;;;;;;;1858823;75;26374;-85
2022/07/09 11:49:35;;;;;;;0.30;0.30;;;;;;;;;;1852331;76;26281;-86
2022/07/09 11:52:02;;;;;;;0.40;0.40;;;;;;;;;;1870963;75;26283;-86
2022/07/09 11:54:30;;;;;;;0.45;0.45;;;;;;;;;;1865924;75;26695;-86
2022/07/09 11:56:57;;;;;;;0.30;0.30;;;;;;;;;;1861212;76;26220;-85
2022/07/09 11:59:31;;;;;;;0.50;0.50;;;;;;;;;;1859347;76;26421;-85
2022/07/09 12:01:58;;;;;;;0.40;0.40;;;;;;;;;;1866260;77;26394;-86
2022/07/09 12:04:27;;;;;;;0.30;0.30;;;;;;;;;;1867809;77;26228;-86
2022/07/09 12:06:54;;;;;;;0.30;0.30;;;;;;;;;;1857999;77;26204;-86
2022/07/09 12:09:29;;;;;;;1.22;0.40;;;;;;;;;;1860609;77;26310;-86
2022/07/09 12:11:57;;;;;;;0.40;0.40;;;;;;;;;;1844755;77;26353;-88
2022/07/09 12:14:24;;;;;;;0.42;0.42;;;;;;;;;;1860317;77;26257;-86
2022/07/09 12:16:51;;;;;;;0.30;0.30;;;;;;;;;;1869565;77;26901;-86
2022/07/09 12:19:19;;;;;;;0.30;0.30;;;;;;;;;;1863274;77;26303;-86
2022/07/09 12:21:46;;;;;;;0.30;0.30;;;;;;;;;;1864167;77;26310;-86
2022/07/09 12:24:13;;;;;;;0.30;0.30;;;;;;;;;;1853745;77;26878;-86
2022/07/09 12:26:41;;;;;;;0.40;0.40;;;;;;;;;;1867881;77;26335;-86
2022/07/09 12:29:08;;;;;;;0.40;0.40;;;;;;;;;;1854263;77;26270;-86
2022/07/09 12:31:40;;;;;;;0.25;0.25;;;;;;;;;;1864057;77;26270;-86
2022/07/09 12:34:05;;;;;;;0.40;0.40;;;;;;;;;;1855565;77;26767;-86
2022/07/09 12:36:33;;;;;;;0.30;0.30;;;;;;;;;;1867026;77;26341;-86
2022/07/09 12:39:00;;;;;;;0.30;0.30;;;;;;;;;;1863924;77;26695;-86
2022/07/09 12:41:28;;;;;;;0.30;0.30;;;;;;;;;;1866369;76;26686;-85
2022/07/09 12:43:55;;;;;;;0.40;0.40;;;;;;;;;;1855904;77;26263;-84
2022/07/09 12:46:23;;;;;;;0.25;0.25;;;;;;;;;;1867245;77;26350;-85
2022/07/09 12:48:50;;;;;;;0.30;0.30;;;;;;;;;;1858586;77;26368;-85
2022/07/09 12:51:17;;;;;;;0.30;0.30;;;;;;;;;;1854688;77;26377;-86
2022/07/09 12:53:44;;;;;;;0.40;0.40;;;;;;;;;;1855779;77;26318;-85
2022/07/09 12:56:12;;;;;;;0.37;0.37;;;;;;;;;;1866964;77;26712;-85
2022/07/09 12:58:39;;;;;;;0.25;0.25;;;;;;;;;;1861128;77;26349;-85
2022/07/09 13:01:06;;;;;;;0.40;0.40;;;;;;;;;;1855707;77;26370;-85
2022/07/09 13:03:33;;;;;;;0.30;0.30;;;;;;;;;;1779804;80;26246;-85
2022/07/09 13:06:01;;;;;;;0.30;0.30;;;;;;;;;;1799284;79;26296;-86
2022/07/09 13:08:28;;;;;;;0.20;0.20;;;;;;;;;;1816075;78;26255;-85
2022/07/09 13:10:55;;;;;;;0.53;0.28;;;;;;;;;;1823376;78;26282;-85
2022/07/09 13:13:23;;;;;;;0.20;0.20;;;;;;;;;;1832492;78;26213;-86
2022/07/09 13:15:51;;;;;;;0.30;0.30;;;;;;;;;;1832583;77;26697;-86
2022/07/09 13:18:19;;;;;;;0.30;0.30;;;;;;;;;;1831369;78;26280;-86
2022/07/09 13:20:46;;;;;;;0.40;0.40;;;;;;;;;;1827623;78;26682;-86
2022/07/09 13:23:13;;;;;;;0.20;0.20;;;;;;;;;;1826926;78;26257;-85
2022/07/09 13:25:41;;;;;;;0.25;0.25;;;;;;;;;;1823678;77;26388;-85
2022/07/09 13:28:08;;;;;;;0.30;0.30;;;;;;;;;;1824292;78;26341;-85
2022/07/09 13:30:36;;;;;;;0.30;0.30;;;;;;;;;;1819830;77;26254;-85
2022/07/09 13:33:03;;;;;;;0.20;0.20;;;;;;;;;;1831613;77;26319;-85
2022/07/09 13:35:30;;;;;;;0.30;0.30;;;;;;;;;;1826588;77;26260;-85
2022/07/09 13:37:58;;;;;;;0.30;0.30;;;;;;;;;;1829868;77;26238;-86
2022/07/09 13:40:25;;;;;;;0.40;0.40;;;;;;;;;;1830134;78;26288;-85
2022/07/09 13:42:52;;;;;;;0.30;0.30;;;;;;;;;;1814107;78;26262;-85
2022/07/09 13:45:19;;;;;;;0.30;0.30;;;;;;;;;;1812949;78;26266;-85
2022/07/09 13:47:47;;;;;;;0.25;0.25;;;;;;;;;;1816476;78;26281;-86
2022/07/09 13:50:14;;;;;;;0.40;0.40;;;;;;;;;;1823199;77;26553;-86
2022/07/09 13:52:41;;;;;;;0.23;0.23;;;;;;;;;;1829407;77;26796;-86
2022/07/09 13:55:09;;;;;;;0.28;0.28;;;;;;;;;;1828156;77;26272;-85
2022/07/09 13:57:36;;;;;;;0.30;0.30;;;;;;;;;;1826976;77;26305;-86
2022/07/09 14:00:05;;;;;;;0.30;0.30;;;;;;;;;;1832011;78;26584;-86
2022/07/09 14:02:36;;;;;;;0.40;0.40;;;;;;;;;;1848533;77;26299;-86
2022/07/09 14:05:04;;;;;;;0.20;0.20;;;;;;;;;;1840049;77;26368;-86
2022/07/09 14:07:32;;;;;;;0.20;0.20;;;;;;;;;;1840976;77;26243;-86
2022/07/09 14:09:59;;;;;;;0.20;0.20;;;;;;;;;;1836255;77;26290;-86
2022/07/09 14:12:26;;;;;;;0.20;0.20;;;;;;;;;;1839017;77;25805;-86
2022/07/09 14:14:53;;;;;;;0.30;0.30;;;;;;;;;;1842096;77;26808;-86
2022/07/09 14:17:21;;;;;;;0.25;0.25;;;;;;;;;;1845199;77;26269;-86
2022/07/09 14:19:48;;;;;;;0.30;0.30;;;;;;;;;;1848290;77;26294;-86
2022/07/09 14:22:15;;;;;;;0.20;0.20;;;;;;;;;;1846058;77;26278;-84
2022/07/09 14:24:43;;;;;;;0.30;0.30;;;;;;;;;;1849686;77;26765;-86
2022/07/09 14:27:10;;;;;;;0.20;0.20;;;;;;;;;;1843393;77;26283;-86
2022/07/09 14:29:37;;;;;;;0.30;0.30;;;;;;;;;;1844498;77;26261;-85
2022/07/09 14:32:07;;;;;;;0.30;0.30;;;;;;;;;;1837766;77;26308;-85
2022/07/09 14:34:34;;;;;;;0.40;0.40;;;;;;;;;;1849056;77;26397;-86
2022/07/09 14:37:01;;;;;;;0.20;0.20;;;;;;;;;;1831476;77;26812;-86
2022/07/09 14:39:29;;;;;;;0.30;0.30;;;;;;;;;;1846271;77;26260;-86
2022/07/09 14:41:57;;;;;;;0.80;0.30;;;;;;;;;;1849583;77;26256;-86
2022/07/09 14:44:24;;;;;;;0.30;0.30;;;;;;;;;;1839813;77;26628;-85
2022/07/09 14:46:57;;;;;;;0.30;0.30;;;;;;;;;;1849643;77;26330;-86